createdAt,value
2023-02-22T00:01:35.432Z,7.00
2023-02-22T00:04:06.965Z,7.00
2023-02-22T00:06:34.262Z,6.90
2023-02-22T00:09:02.674Z,6.90
2023-02-22T00:11:31.704Z,6.80
2023-02-22T00:13:58.754Z,6.90
2023-02-22T00:16:26.803Z,6.80
2023-02-22T00:18:54.397Z,6.90
2023-02-22T00:21:22.367Z,6.80
2023-02-22T00:23:49.745Z,6.90
2023-02-22T00:26:21.808Z,6.90
2023-02-22T00:28:52.797Z,6.90
2023-02-22T00:31:20.955Z,6.90
2023-02-22T00:33:49.531Z,6.90
2023-02-22T00:36:17.587Z,6.90
2023-02-22T00:38:44.641Z,6.90
2023-02-22T00:41:12.267Z,6.90
2023-02-22T00:43:39.297Z,6.90
2023-02-22T00:46:06.345Z,7.00
2023-02-22T00:48:33.313Z,7.00
2023-02-22T00:51:00.595Z,7.00
2023-02-22T00:53:29.876Z,7.00
2023-02-22T00:55:56.864Z,7.00
2023-02-22T00:58:26.869Z,6.90
2023-02-22T01:00:53.908Z,6.90
2023-02-22T01:03:21.518Z,6.80
2023-02-22T01:05:49.949Z,6.80
2023-02-22T01:08:17.929Z,6.70
2023-02-22T01:10:46.661Z,6.70
2023-02-22T01:13:14.286Z,6.70
2023-02-22T01:15:43.177Z,6.70
2023-02-22T01:18:12.652Z,6.70
2023-02-22T01:20:39.733Z,6.60
2023-02-22T01:23:08.144Z,6.60
2023-02-22T01:25:36.274Z,6.60
2023-02-22T01:28:05.136Z,6.50
2023-02-22T01:30:35.358Z,6.50
2023-02-22T01:33:04.294Z,6.50
2023-02-22T01:35:35.132Z,6.50
2023-02-22T01:38:02.454Z,6.40
2023-02-22T01:40:35.598Z,6.40
2023-02-22T01:43:23.514Z,6.40
2023-02-22T01:46:02.551Z,6.40
2023-02-22T01:48:32.810Z,6.40
2023-02-22T01:51:11.201Z,6.40
2023-02-22T01:53:58.525Z,6.40
2023-02-22T01:56:28.968Z,6.30
2023-02-22T01:59:07.719Z,6.30
2023-02-22T02:01:39.709Z,6.30
2023-02-22T02:04:11.620Z,6.20
2023-02-22T02:06:39.396Z,6.20
2023-02-22T02:09:25.599Z,6.20
2023-02-22T02:11:53.647Z,6.20
2023-02-22T02:14:21.677Z,6.20
2023-02-22T02:16:51.955Z,6.20
2023-02-22T02:19:40.254Z,6.20
2023-02-22T02:22:16.880Z,6.20
2023-02-22T02:25:05.298Z,6.30
2023-02-22T02:27:58.037Z,6.30
2023-02-22T02:30:50.048Z,6.30
2023-02-22T02:33:25.660Z,6.30
2023-02-22T02:36:17.726Z,6.30
2023-02-22T02:38:58.026Z,6.30
2023-02-22T02:41:39.830Z,6.30
2023-02-22T02:44:14.543Z,6.30
2023-02-22T02:46:59.353Z,6.40
2023-02-22T02:49:51.902Z,6.40
2023-02-22T02:52:22.006Z,6.40
2023-02-22T02:54:49.375Z,6.40
2023-02-22T02:57:16.842Z,6.40
2023-02-22T02:59:43.937Z,6.40
2023-02-22T03:02:23.072Z,6.40
2023-02-22T03:05:16.145Z,6.30
2023-02-22T03:08:01.859Z,6.30
2023-02-22T03:10:56.069Z,6.30
2023-02-22T03:13:48.551Z,6.30
2023-02-22T03:16:20.554Z,6.20
2023-02-22T03:19:24.150Z,6.20
2023-02-22T03:22:03.970Z,6.20
2023-02-22T03:24:37.596Z,6.20
2023-02-22T03:27:21.505Z,6.20
2023-02-22T03:29:54.453Z,6.10
2023-02-22T03:32:27.969Z,6.10
2023-02-22T03:35:23.071Z,6.10
2023-02-22T03:37:56.678Z,6.10
2023-02-22T03:40:31.814Z,6.00
2023-02-22T03:43:14.465Z,6.00
2023-02-22T03:45:46.783Z,6.00
2023-02-22T03:48:20.642Z,6.00
2023-02-22T03:50:49.760Z,6.00
2023-02-22T03:53:19.522Z,6.00
2023-02-22T03:55:52.989Z,6.00
2023-02-22T03:58:22.902Z,6.00
2023-02-22T04:00:53.228Z,5.90
2023-02-22T04:03:23.973Z,5.90
2023-02-22T04:05:52.284Z,5.80
2023-02-22T04:08:20.079Z,5.80
2023-02-22T04:10:47.421Z,5.80
2023-02-22T04:13:16.563Z,5.80
2023-02-22T04:15:47.443Z,5.70
2023-02-22T04:18:14.996Z,5.80
2023-02-22T04:20:42.174Z,5.70
2023-02-22T04:23:12.706Z,5.70
2023-02-22T04:25:41.684Z,5.70
2023-02-22T04:28:12.172Z,5.70
2023-02-22T04:30:57.780Z,5.70
2023-02-22T04:33:28.458Z,5.60
2023-02-22T04:35:57.745Z,5.60
2023-02-22T04:38:28.557Z,5.60
2023-02-22T04:40:58.050Z,5.50
2023-02-22T04:43:26.540Z,5.50
2023-02-22T04:46:00.391Z,5.50
2023-02-22T04:48:27.495Z,5.50
2023-02-22T04:50:54.426Z,5.50
2023-02-22T04:53:22.444Z,5.50
2023-02-22T04:55:49.509Z,5.40
2023-02-22T04:58:17.489Z,5.40
2023-02-22T05:00:44.644Z,5.40
2023-02-22T05:03:11.590Z,5.40
2023-02-22T05:05:38.608Z,5.40
2023-02-22T05:08:05.722Z,5.30
2023-02-22T05:10:32.625Z,5.30
2023-02-22T05:12:59.608Z,5.30
2023-02-22T05:15:26.704Z,5.30
2023-02-22T05:17:53.749Z,5.30
2023-02-22T05:20:29.907Z,5.30
2023-02-22T05:22:58.185Z,5.20
2023-02-22T05:25:26.161Z,5.20
2023-02-22T05:27:59.306Z,5.20
2023-02-22T05:30:30.584Z,5.10
2023-02-22T05:32:59.283Z,5.20
2023-02-22T05:35:27.341Z,5.20
2023-02-22T05:37:54.516Z,5.20
2023-02-22T05:40:25.144Z,5.20
2023-02-22T05:42:53.127Z,5.20
2023-02-22T05:45:22.457Z,5.20
2023-02-22T05:47:49.668Z,5.20
2023-02-22T05:50:20.873Z,5.20
2023-02-22T05:52:49.083Z,5.20
2023-02-22T05:55:18.431Z,5.20
2023-02-22T05:57:46.134Z,5.20
2023-02-22T06:00:26.376Z,5.30
2023-02-22T06:02:58.804Z,5.30
2023-02-22T06:05:26.884Z,5.30
2023-02-22T06:07:54.203Z,5.30
2023-02-22T06:10:21.739Z,5.30
2023-02-22T06:12:49.163Z,5.30
2023-02-22T06:15:17.838Z,5.30
2023-02-22T06:17:45.335Z,5.30
2023-02-22T06:20:15.016Z,5.30
2023-02-22T06:22:41.972Z,5.30
2023-02-22T06:25:09.674Z,5.30
2023-02-22T06:27:37.423Z,5.30
2023-02-22T06:30:05.309Z,5.40
2023-02-22T06:32:32.574Z,5.40
2023-02-22T06:34:59.507Z,5.40
2023-02-22T06:37:26.692Z,5.40
2023-02-22T06:39:53.646Z,5.50
2023-02-22T06:42:20.681Z,5.40
2023-02-22T06:44:47.632Z,5.50
2023-02-22T06:47:14.617Z,5.50
2023-02-22T06:49:41.826Z,5.60
2023-02-22T06:52:10.299Z,5.60
2023-02-22T06:54:39.238Z,5.70
2023-02-22T06:57:06.293Z,5.70
2023-02-22T06:59:33.259Z,5.70
2023-02-22T07:02:00.224Z,5.70
2023-02-22T07:04:27.243Z,5.80
2023-02-22T07:06:54.399Z,5.80
2023-02-22T07:09:21.369Z,5.80
2023-02-22T07:11:48.341Z,5.80
2023-02-22T07:14:17.523Z,5.90
2023-02-22T07:16:44.418Z,5.90
2023-02-22T07:19:11.349Z,6.00
2023-02-22T07:21:38.309Z,6.10
2023-02-22T07:24:05.586Z,6.20
2023-02-22T07:26:41.986Z,6.30
2023-02-22T07:29:11.372Z,6.40
2023-02-22T07:31:39.686Z,6.40
2023-02-22T07:34:06.783Z,6.50
2023-02-22T07:36:33.786Z,6.50
2023-02-22T07:39:00.753Z,6.60
2023-02-22T07:41:27.884Z,6.70
2023-02-22T07:43:54.778Z,6.80
2023-02-22T07:46:21.703Z,6.90
2023-02-22T07:48:48.666Z,7.00
2023-02-22T07:51:17.433Z,7.20
2023-02-22T07:53:44.582Z,7.40
2023-02-22T07:56:11.629Z,7.80
2023-02-22T07:58:38.621Z,8.40
2023-02-22T08:01:05.793Z,9.10
2023-02-22T08:03:36.763Z,9.70
2023-02-22T08:06:05.799Z,10.00
2023-02-22T08:08:32.818Z,10.00
2023-02-22T08:11:00.011Z,9.90
2023-02-22T08:13:27.024Z,9.70
2023-02-22T08:15:54.848Z,9.50
2023-02-22T08:18:23.387Z,9.40
2023-02-22T08:20:52.092Z,9.30
2023-02-22T08:23:20.697Z,9.30
2023-02-22T08:25:47.739Z,9.30
2023-02-22T08:28:17.322Z,9.30
2023-02-22T08:30:44.408Z,9.30
2023-02-22T08:33:19.255Z,9.30
2023-02-22T08:35:49.719Z,9.40
2023-02-22T08:38:24.141Z,9.40
2023-02-22T08:40:51.483Z,9.40
2023-02-22T08:43:20.088Z,9.50
2023-02-22T08:45:47.663Z,9.60
2023-02-22T08:48:15.954Z,9.60
2023-02-22T08:50:44.523Z,9.70
2023-02-22T08:53:13.919Z,9.70
2023-02-22T08:55:42.173Z,9.80
2023-02-22T08:58:09.822Z,9.90
2023-02-22T09:00:39.056Z,10.00
2023-02-22T09:03:14.901Z,10.00
2023-02-22T09:05:43.564Z,10.10
2023-02-22T09:08:10.716Z,10.20
2023-02-22T09:10:37.647Z,10.30
2023-02-22T09:13:05.248Z,10.40
2023-02-22T09:15:34.153Z,10.50
2023-02-22T09:18:01.269Z,10.60
2023-02-22T09:20:28.730Z,10.80
2023-02-22T09:22:56.194Z,10.90
2023-02-22T09:25:23.647Z,11.10
2023-02-22T09:27:53.337Z,11.30
2023-02-22T09:30:28.128Z,11.40
2023-02-22T09:32:58.323Z,11.50
2023-02-22T09:35:27.416Z,11.60
2023-02-22T09:37:59.389Z,11.70
2023-02-22T09:40:32.266Z,11.90
2023-02-22T09:43:02.268Z,12.00
2023-02-22T09:45:37.518Z,12.10
2023-02-22T09:48:20.740Z,12.10
2023-02-22T09:50:51.153Z,12.20
2023-02-22T09:53:31.053Z,12.40
2023-02-22T09:56:19.774Z,12.50
2023-02-22T09:58:54.038Z,12.60
2023-02-22T10:01:27.210Z,12.70
2023-02-22T10:04:01.658Z,12.80
2023-02-22T10:06:29.855Z,12.80
2023-02-22T10:09:01.279Z,12.90
2023-02-22T10:11:34.866Z,12.90
2023-02-22T10:14:51.817Z,12.90
2023-02-22T10:17:33.219Z,13.00
2023-02-22T10:20:15.339Z,13.00
2023-02-22T10:23:16.465Z,12.90
2023-02-22T10:25:45.243Z,13.00
2023-02-22T10:28:21.040Z,13.00
2023-02-22T10:30:59.308Z,13.00
2023-02-22T10:33:48.946Z,13.10
2023-02-22T10:36:20.156Z,13.20
2023-02-22T10:39:11.816Z,13.20
2023-02-22T10:41:45.807Z,13.30
2023-02-22T10:44:12.707Z,13.40
2023-02-22T10:46:42.040Z,13.40
2023-02-22T10:49:12.263Z,13.50
2023-02-22T10:51:39.507Z,13.60
2023-02-22T10:54:30.512Z,13.70
2023-02-22T10:56:58.062Z,13.70
2023-02-22T10:59:32.803Z,13.80
2023-02-22T11:02:02.050Z,13.80
2023-02-22T11:04:49.578Z,13.90
2023-02-22T11:07:30.659Z,13.90
2023-02-22T11:09:59.690Z,13.90
2023-02-22T11:12:28.609Z,14.00
2023-02-22T11:14:56.448Z,14.10
2023-02-22T11:17:32.532Z,14.10
2023-02-22T11:20:00.449Z,14.20
2023-02-22T11:22:35.881Z,14.20
2023-02-22T11:25:07.507Z,14.20
2023-02-22T11:27:40.236Z,14.20
2023-02-22T11:30:25.513Z,14.30
2023-02-22T11:33:23.943Z,14.30
2023-02-22T11:35:56.541Z,14.40
2023-02-22T11:38:23.622Z,14.40
2023-02-22T11:41:15.665Z,14.40
2023-02-22T11:43:44.500Z,14.50
2023-02-22T11:46:21.120Z,14.50
2023-02-22T11:49:04.674Z,14.60
2023-02-22T11:51:56.046Z,14.60
2023-02-22T11:54:38.215Z,14.70
2023-02-22T11:57:16.488Z,14.70
2023-02-22T12:00:15.451Z,14.80
2023-02-22T12:03:13.789Z,14.90
2023-02-22T12:06:01.706Z,14.90
2023-02-22T12:08:55.008Z,14.90
2023-02-22T12:11:36.079Z,14.90
2023-02-22T12:14:34.652Z,14.80
2023-02-22T12:17:34.989Z,14.80
2023-02-22T12:20:21.369Z,14.90
2023-02-22T12:23:00.937Z,15.00
2023-02-22T12:25:33.999Z,15.00
2023-02-22T12:28:24.230Z,15.00
2023-02-22T12:31:15.810Z,15.00
2023-02-22T12:34:17.895Z,14.90
2023-02-22T12:36:53.665Z,15.00
2023-02-22T12:39:25.616Z,15.00
2023-02-22T12:41:56.079Z,15.10
2023-02-22T12:44:33.232Z,15.10
2023-02-22T12:47:02.472Z,15.20
2023-02-22T12:49:48.468Z,15.20
2023-02-22T12:52:37.060Z,15.20
2023-02-22T12:55:47.549Z,15.30
2023-02-22T12:58:14.552Z,15.20
2023-02-22T13:01:02.298Z,15.20
2023-02-22T13:03:38.056Z,15.10
2023-02-22T13:06:29.972Z,15.20
2023-02-22T13:09:08.951Z,15.20
2023-02-22T13:11:59.626Z,15.20
2023-02-22T13:14:42.528Z,15.10
2023-02-22T13:17:25.171Z,15.00
2023-02-22T13:20:13.809Z,14.90
2023-02-22T13:22:59.031Z,14.90
2023-02-22T13:25:34.701Z,14.90
2023-02-22T13:28:29.217Z,14.90
2023-02-22T13:31:11.259Z,14.90
2023-02-22T13:34:01.388Z,14.90
2023-02-22T13:36:31.460Z,14.90
2023-02-22T13:39:17.290Z,14.90
2023-02-22T13:42:25.213Z,14.90
2023-02-22T13:45:04.383Z,15.00
2023-02-22T13:48:09.380Z,15.00
2023-02-22T13:51:06.942Z,15.00
2023-02-22T13:54:06.318Z,15.00
2023-02-22T13:56:33.532Z,14.90
2023-02-22T13:59:04.814Z,14.90
2023-02-22T14:01:49.130Z,14.90
2023-02-22T14:04:28.181Z,14.90
2023-02-22T14:07:04.730Z,14.90
2023-02-22T14:09:45.557Z,14.80
2023-02-22T14:12:31.021Z,14.80
2023-02-22T14:15:28.799Z,14.80
2023-02-22T14:18:05.105Z,14.80
2023-02-22T14:20:37.198Z,14.80
2023-02-22T14:23:43.252Z,14.90
2023-02-22T14:26:16.528Z,14.90
2023-02-22T14:29:00.652Z,14.90
2023-02-22T14:31:37.962Z,14.90
2023-02-22T14:34:17.485Z,14.80
2023-02-22T14:36:54.851Z,14.90
2023-02-22T14:39:32.880Z,14.80
2023-02-22T14:42:29.636Z,14.80
2023-02-22T14:45:17.172Z,14.80
2023-02-22T14:48:01.351Z,14.80
2023-02-22T14:50:34.155Z,14.70
2023-02-22T14:53:06.991Z,14.70
2023-02-22T14:55:37.498Z,14.60
2023-02-22T14:58:20.258Z,14.60
2023-02-22T15:00:50.492Z,14.60
2023-02-22T15:03:37.482Z,14.50
2023-02-22T15:06:06.076Z,14.50
2023-02-22T15:08:34.432Z,14.50
2023-02-22T15:11:02.455Z,14.40
2023-02-22T15:13:34.407Z,14.40
2023-02-22T15:16:03.971Z,14.30
2023-02-22T15:18:40.852Z,14.30
2023-02-22T15:21:16.281Z,14.20
2023-02-22T15:23:50.490Z,14.20
2023-02-22T15:26:58.997Z,14.20
2023-02-22T15:29:37.732Z,14.10
2023-02-22T15:32:20.081Z,14.10
2023-02-22T15:34:47.136Z,14.00
2023-02-22T15:37:25.820Z,14.00
2023-02-22T15:39:59.516Z,13.90
2023-02-22T15:42:30.471Z,13.90
2023-02-22T15:44:58.148Z,13.80
2023-02-22T15:47:31.994Z,13.80
2023-02-22T15:50:23.984Z,13.80
2023-02-22T15:53:02.995Z,13.70
2023-02-22T15:55:43.761Z,13.70
2023-02-22T15:58:17.009Z,13.60
2023-02-22T16:00:52.161Z,13.60
2023-02-22T16:03:28.714Z,13.50
2023-02-22T16:05:57.406Z,13.50
2023-02-22T16:08:54.688Z,13.50
2023-02-22T16:11:40.375Z,13.50
2023-02-22T16:14:36.484Z,13.40
2023-02-22T16:17:39.864Z,13.40
2023-02-22T16:20:17.742Z,13.40
2023-02-22T16:22:49.450Z,13.40
2023-02-22T16:25:19.593Z,13.30
2023-02-22T16:27:58.921Z,13.30
2023-02-22T16:30:32.953Z,13.30
2023-02-22T16:33:06.364Z,13.30
2023-02-22T16:35:36.665Z,13.30
2023-02-22T16:38:07.889Z,13.30
2023-02-22T16:40:45.248Z,13.20
2023-02-22T16:43:17.190Z,13.20
2023-02-22T16:45:46.701Z,13.20
2023-02-22T16:48:23.415Z,13.20
2023-02-22T16:50:54.475Z,13.20
2023-02-22T16:53:24.504Z,13.20
2023-02-22T16:55:57.762Z,13.10
2023-02-22T16:58:29.281Z,13.10
2023-02-22T17:00:57.589Z,13.10
2023-02-22T17:03:26.108Z,13.00
2023-02-22T17:05:54.100Z,13.00
2023-02-22T17:08:21.136Z,13.00
2023-02-22T17:10:51.510Z,13.00
2023-02-22T17:13:27.146Z,13.00
2023-02-22T17:15:55.211Z,13.00
2023-02-22T17:18:24.991Z,13.00
2023-02-22T17:20:54.186Z,12.90
2023-02-22T17:23:22.783Z,12.90
2023-02-22T17:25:49.738Z,12.90
2023-02-22T17:28:17.131Z,12.80
2023-02-22T17:30:45.292Z,12.80
2023-02-22T17:33:16.502Z,12.70
2023-02-22T17:35:44.302Z,12.70
2023-02-22T17:38:11.334Z,12.60
2023-02-22T17:40:39.850Z,12.60
2023-02-22T17:43:10.671Z,12.60
2023-02-22T17:45:38.995Z,12.60
2023-02-22T17:48:06.226Z,12.50
2023-02-22T17:50:33.264Z,12.60
2023-02-22T17:53:00.684Z,12.50
2023-02-22T17:55:28.209Z,12.50
2023-02-22T17:57:58.426Z,12.50
2023-02-22T18:00:33.526Z,12.40
2023-02-22T18:03:07.096Z,12.40
2023-02-22T18:05:43.621Z,12.40
2023-02-22T18:08:10.902Z,12.30
2023-02-22T18:10:38.555Z,12.30
2023-02-22T18:13:05.467Z,12.20
2023-02-22T18:15:35.663Z,12.20
2023-02-22T18:18:06.684Z,12.20
2023-02-22T18:20:40.772Z,12.20
2023-02-22T18:23:14.094Z,12.20
2023-02-22T18:26:03.810Z,12.10
2023-02-22T18:28:35.790Z,12.10
2023-02-22T18:31:08.133Z,12.00
2023-02-22T18:33:35.538Z,12.00
2023-02-22T18:36:03.144Z,12.00
2023-02-22T18:38:30.101Z,12.00
2023-02-22T18:41:04.142Z,12.00
2023-02-22T18:43:36.929Z,12.00
2023-02-22T18:46:19.466Z,12.00
2023-02-22T18:48:48.242Z,12.00
2023-02-22T18:51:17.385Z,12.00
2023-02-22T18:53:47.566Z,12.00
2023-02-22T18:56:22.330Z,12.00
2023-02-22T18:59:09.735Z,12.00
2023-02-22T19:01:49.195Z,12.00
2023-02-22T19:04:38.881Z,12.00
2023-02-22T19:10:48.620Z,11.90
2023-02-22T19:13:23.707Z,11.80
2023-02-22T19:16:03.804Z,11.70
2023-02-22T19:18:49.916Z,11.70
2023-02-22T19:21:47.071Z,11.60
2023-02-22T19:24:21.162Z,11.60
2023-02-22T19:26:51.836Z,11.60
2023-02-22T19:29:22.230Z,11.50
2023-02-22T19:31:51.704Z,11.50
2023-02-22T19:34:21.917Z,11.50
2023-02-22T19:36:50.192Z,11.50
2023-02-22T19:39:24.810Z,11.50
2023-02-22T19:41:57.159Z,11.50
2023-02-22T19:44:29.653Z,11.60
2023-02-22T19:47:03.910Z,11.50
2023-02-22T19:49:35.022Z,11.50
2023-02-22T19:52:04.239Z,11.50
2023-02-22T19:54:31.891Z,11.60
2023-02-22T19:57:01.722Z,11.60
2023-02-22T19:59:29.175Z,11.60
2023-02-22T20:01:56.906Z,11.60
2023-02-22T20:04:24.566Z,11.60
2023-02-22T20:06:55.493Z,11.60
2023-02-22T20:09:29.821Z,11.60
2023-02-22T20:11:57.394Z,11.60
2023-02-22T20:14:28.418Z,11.60
2023-02-22T20:16:56.708Z,11.60
2023-02-22T20:19:24.627Z,11.60
2023-02-22T20:21:58.092Z,11.60
2023-02-22T20:24:27.699Z,11.60
2023-02-22T20:26:57.171Z,11.60
2023-02-22T20:29:31.466Z,11.60
2023-02-22T20:32:02.632Z,11.60
2023-02-22T20:34:33.415Z,11.50
2023-02-22T20:37:01.141Z,11.50
2023-02-22T20:39:28.900Z,11.50
2023-02-22T20:41:55.959Z,11.50
2023-02-22T20:44:23.130Z,11.50
2023-02-22T20:46:50.069Z,11.50
2023-02-22T20:49:19.703Z,11.50
2023-02-22T20:51:48.121Z,11.50
2023-02-22T20:54:16.312Z,11.50
2023-02-22T20:56:45.302Z,11.50
2023-02-22T20:59:14.354Z,11.50
2023-02-22T21:01:42.269Z,11.50
2023-02-22T21:04:10.765Z,11.50
2023-02-22T21:06:39.407Z,11.50
2023-02-22T21:09:08.919Z,11.50
2023-02-22T21:11:36.222Z,11.60
2023-02-22T21:14:03.897Z,11.60
2023-02-22T21:16:33.581Z,11.60
2023-02-22T21:19:03.638Z,11.60
2023-02-22T21:21:30.984Z,11.60
2023-02-22T21:24:02.720Z,11.60
2023-02-22T21:26:33.065Z,11.60
2023-02-22T21:29:03.438Z,11.70
2023-02-22T21:31:34.326Z,11.70
2023-02-22T21:34:02.328Z,11.70
2023-02-22T21:36:30.159Z,11.70
2023-02-22T21:39:00.130Z,11.70
2023-02-22T21:41:30.567Z,11.70
2023-02-22T21:43:59.105Z,11.60
2023-02-22T21:46:29.085Z,11.70
2023-02-22T21:48:58.702Z,11.70
2023-02-22T21:51:31.829Z,11.70
2023-02-22T21:54:03.578Z,11.70
2023-02-22T21:56:32.727Z,11.70
2023-02-22T21:59:03.608Z,11.60
2023-02-22T22:01:36.300Z,11.60
2023-02-22T22:04:04.772Z,11.60
2023-02-22T22:06:34.580Z,11.60
2023-02-22T22:09:04.704Z,11.60
2023-02-22T22:11:31.662Z,11.50
2023-02-22T22:13:59.794Z,11.60
2023-02-22T22:16:29.923Z,11.60
2023-02-22T22:18:57.648Z,11.60
2023-02-22T22:21:25.686Z,11.60
2023-02-22T22:23:57.314Z,11.60
2023-02-22T22:26:25.415Z,11.60
2023-02-22T22:28:56.153Z,11.70
2023-02-22T22:31:26.004Z,11.60
2023-02-22T22:33:54.102Z,11.60
2023-02-22T22:36:22.462Z,11.60
2023-02-22T22:38:49.723Z,11.60
2023-02-22T22:41:19.796Z,11.60
2023-02-22T22:43:47.482Z,11.60
2023-02-22T22:46:17.809Z,11.60
2023-02-22T22:48:47.383Z,11.60
2023-02-22T22:51:20.036Z,11.60
2023-02-22T22:53:48.172Z,11.60
2023-02-22T22:56:18.396Z,11.70
2023-02-22T22:58:50.194Z,11.60
2023-02-22T23:01:19.737Z,11.60
2023-02-22T23:03:59.783Z,11.60
2023-02-22T23:06:38.690Z,11.60
2023-02-22T23:09:30.444Z,11.60
2023-02-22T23:12:08.845Z,11.60
2023-02-22T23:14:44.096Z,11.60
2023-02-22T23:17:26.859Z,11.60
2023-02-22T23:19:53.797Z,11.60
2023-02-22T23:22:21.244Z,11.60
2023-02-22T23:24:48.503Z,11.60
2023-02-22T23:27:15.688Z,11.50
2023-02-22T23:29:46.691Z,11.50
2023-02-22T23:32:15.221Z,11.50
2023-02-22T23:34:42.134Z,11.40
2023-02-22T23:37:10.756Z,11.40
2023-02-22T23:39:38.469Z,11.40
2023-02-22T23:42:08.728Z,11.40
2023-02-22T23:44:35.838Z,11.50
2023-02-22T23:47:03.952Z,11.40
2023-02-22T23:49:37.910Z,11.30
2023-02-22T23:52:06.239Z,11.30
2023-02-22T23:54:36.514Z,11.30
2023-02-22T23:57:04.713Z,11.30
2023-02-22T23:59:33.044Z,11.30
